createdAt,value
2023-03-06T00:01:57.787Z,6.78
2023-03-06T00:04:24.898Z,6.89
2023-03-06T00:06:52.005Z,7.01
2023-03-06T00:09:18.923Z,6.93
2023-03-06T00:11:46.042Z,7.03
2023-03-06T00:14:12.997Z,6.80
2023-03-06T00:16:40.009Z,6.70
2023-03-06T00:19:06.944Z,6.63
2023-03-06T00:21:34.033Z,6.67
2023-03-06T00:24:01.036Z,6.89
2023-03-06T00:26:28.074Z,7.02
2023-03-06T00:28:55.334Z,6.37
2023-03-06T00:31:22.746Z,6.35
2023-03-06T00:33:50.021Z,7.05
2023-03-06T00:36:18.259Z,6.94
2023-03-06T00:38:45.272Z,6.80
2023-03-06T00:41:12.891Z,6.70
2023-03-06T00:43:40.046Z,6.68
2023-03-06T00:46:08.319Z,6.86
2023-03-06T00:48:35.554Z,6.86
2023-03-06T00:51:02.569Z,6.52
2023-03-06T00:53:29.644Z,6.38
2023-03-06T00:55:56.793Z,6.61
2023-03-06T00:58:23.973Z,6.77
2023-03-06T01:00:52.148Z,6.57
2023-03-06T01:03:19.342Z,6.72
2023-03-06T01:05:46.681Z,6.71
2023-03-06T01:08:13.672Z,6.73
2023-03-06T01:10:40.822Z,6.87
2023-03-06T01:13:09.803Z,6.62
2023-03-06T01:15:36.752Z,6.76
2023-03-06T01:18:03.894Z,6.69
2023-03-06T01:20:31.007Z,6.62
2023-03-06T01:22:58.882Z,6.63
2023-03-06T01:25:26.039Z,6.58
2023-03-06T01:27:53.296Z,6.63
2023-03-06T01:30:20.523Z,6.60
2023-03-06T01:32:48.643Z,6.62
2023-03-06T01:35:15.843Z,6.80
2023-03-06T01:37:43.365Z,6.42
2023-03-06T01:40:11.534Z,6.22
2023-03-06T01:42:38.557Z,6.46
2023-03-06T01:45:11.574Z,6.58
2023-03-06T01:47:38.669Z,6.64
2023-03-06T01:50:07.058Z,6.90
2023-03-06T01:52:56.165Z,6.96
2023-03-06T01:55:27.383Z,6.53
2023-03-06T01:57:57.867Z,6.57
2023-03-06T02:00:28.677Z,6.72
2023-03-06T02:03:16.291Z,6.87
2023-03-06T02:05:44.560Z,6.82
2023-03-06T02:08:12.493Z,6.87
2023-03-06T02:10:50.457Z,6.88
2023-03-06T02:13:17.449Z,6.75
2023-03-06T02:15:44.498Z,6.87
2023-03-06T02:18:11.544Z,6.56
2023-03-06T02:20:43.905Z,6.57
2023-03-06T02:23:19.919Z,6.63
2023-03-06T02:25:50.909Z,6.80
2023-03-06T02:28:18.883Z,6.74
2023-03-06T02:30:47.139Z,6.53
2023-03-06T02:33:15.307Z,6.64
2023-03-06T02:35:46.700Z,6.54
2023-03-06T02:38:15.204Z,6.80
2023-03-06T02:40:43.333Z,6.65
2023-03-06T02:43:11.278Z,6.64
2023-03-06T02:45:39.945Z,6.60
2023-03-06T02:48:07.235Z,6.76
2023-03-06T02:50:35.771Z,6.55
2023-03-06T02:53:02.880Z,6.36
2023-03-06T02:55:31.305Z,6.67
2023-03-06T02:57:58.402Z,6.64
2023-03-06T03:00:26.091Z,6.67
2023-03-06T03:02:53.914Z,6.59
2023-03-06T03:05:21.086Z,6.49
2023-03-06T03:07:54.460Z,6.31
2023-03-06T03:10:21.922Z,6.34
2023-03-06T03:12:49.847Z,6.36
2023-03-06T03:15:17.749Z,6.34
2023-03-06T03:17:45.198Z,6.37
2023-03-06T03:20:14.194Z,6.56
2023-03-06T03:22:41.455Z,6.53
2023-03-06T03:25:09.050Z,6.65
2023-03-06T03:27:37.105Z,6.51
2023-03-06T03:30:05.195Z,6.53
2023-03-06T03:32:32.826Z,6.80
2023-03-06T03:35:00.171Z,6.80
2023-03-06T03:37:28.397Z,6.85
2023-03-06T03:39:56.644Z,6.89
2023-03-06T03:42:23.627Z,6.64
2023-03-06T03:44:50.767Z,6.64
2023-03-06T03:47:20.985Z,6.53
2023-03-06T03:49:48.702Z,6.72
2023-03-06T03:52:15.797Z,6.86
2023-03-06T03:54:42.826Z,6.61
2023-03-06T03:57:10.247Z,6.59
2023-03-06T03:59:41.629Z,6.47
2023-03-06T04:02:15.186Z,6.44
2023-03-06T04:04:51.070Z,6.27
2023-03-06T04:07:18.439Z,6.15
2023-03-06T04:09:45.970Z,6.08
2023-03-06T04:12:13.412Z,5.90
2023-03-06T04:14:40.549Z,6.00
2023-03-06T04:17:08.281Z,6.18
2023-03-06T04:19:35.429Z,6.21
2023-03-06T04:22:02.628Z,6.29
2023-03-06T04:24:32.017Z,6.39
2023-03-06T04:26:59.085Z,6.37
2023-03-06T04:29:27.079Z,6.36
2023-03-06T04:31:54.172Z,6.51
2023-03-06T04:34:21.802Z,6.52
2023-03-06T04:36:48.835Z,6.50
2023-03-06T04:39:17.512Z,6.27
2023-03-06T04:41:44.757Z,6.24
2023-03-06T04:44:11.896Z,6.42
2023-03-06T04:46:38.954Z,6.42
2023-03-06T04:49:06.033Z,5.61
2023-03-06T04:51:33.137Z,5.93
2023-03-06T04:54:00.053Z,5.99
2023-03-06T04:56:26.999Z,6.05
2023-03-06T04:58:53.955Z,6.10
2023-03-06T05:01:21.056Z,5.83
2023-03-06T05:03:50.131Z,5.76
2023-03-06T05:06:17.216Z,5.58
2023-03-06T05:08:46.787Z,5.54
2023-03-06T05:11:14.197Z,5.48
2023-03-06T05:13:41.584Z,5.61
2023-03-06T05:16:09.057Z,5.72
2023-03-06T05:18:36.803Z,5.75
2023-03-06T05:21:04.320Z,5.83
2023-03-06T05:23:34.372Z,5.91
2023-03-06T05:26:01.516Z,5.79
2023-03-06T05:28:28.807Z,5.77
2023-03-06T05:30:56.148Z,5.82
2023-03-06T05:33:23.341Z,5.82
2023-03-06T05:35:52.247Z,5.86
2023-03-06T05:38:19.612Z,5.89
2023-03-06T05:40:46.643Z,5.91
2023-03-06T05:43:13.722Z,5.90
2023-03-06T05:45:42.446Z,5.95
2023-03-06T05:48:10.781Z,5.99
2023-03-06T05:50:38.004Z,5.97
2023-03-06T05:53:05.855Z,6.06
2023-03-06T05:55:32.897Z,6.08
2023-03-06T05:58:00.370Z,6.04
2023-03-06T06:00:27.797Z,6.08
2023-03-06T06:02:54.937Z,6.05
2023-03-06T06:05:23.339Z,6.07
2023-03-06T06:07:50.360Z,6.10
2023-03-06T06:10:18.034Z,6.06
2023-03-06T06:12:45.060Z,6.10
2023-03-06T06:15:13.226Z,6.11
2023-03-06T06:17:40.279Z,6.15
2023-03-06T06:20:10.903Z,6.14
2023-03-06T06:22:41.053Z,6.13
2023-03-06T06:25:08.821Z,6.14
2023-03-06T06:27:36.351Z,6.06
2023-03-06T06:30:04.771Z,6.11
2023-03-06T06:32:32.332Z,6.22
2023-03-06T06:34:59.563Z,6.23
2023-03-06T06:37:27.422Z,6.29
2023-03-06T06:39:54.852Z,6.32
2023-03-06T06:42:32.631Z,6.31
2023-03-06T06:45:01.440Z,6.27
2023-03-06T06:47:28.673Z,6.24
2023-03-06T06:49:56.739Z,6.20
2023-03-06T06:52:24.247Z,6.20
2023-03-06T06:54:52.190Z,6.29
2023-03-06T06:57:19.749Z,6.33
2023-03-06T06:59:46.903Z,6.31
2023-03-06T07:02:14.923Z,6.32
2023-03-06T07:04:52.740Z,6.35
2023-03-06T07:07:27.794Z,6.29
2023-03-06T07:09:55.507Z,6.38
2023-03-06T07:12:23.922Z,6.44
2023-03-06T07:14:51.901Z,6.28
2023-03-06T07:17:19.353Z,5.98
2023-03-06T07:19:46.775Z,5.99
2023-03-06T07:22:14.967Z,5.96
2023-03-06T07:24:42.477Z,6.09
2023-03-06T07:27:09.900Z,6.24
2023-03-06T07:29:37.065Z,6.26
2023-03-06T07:32:04.290Z,5.79
2023-03-06T07:34:31.372Z,5.95
2023-03-06T07:36:58.642Z,6.33
2023-03-06T07:39:25.995Z,6.56
2023-03-06T07:41:53.657Z,6.35
2023-03-06T07:44:22.393Z,5.94
2023-03-06T07:46:49.646Z,6.17
2023-03-06T07:49:17.806Z,6.23
2023-03-06T07:51:45.799Z,6.34
2023-03-06T07:54:12.923Z,6.44
2023-03-06T07:56:39.987Z,6.56
2023-03-06T07:59:07.437Z,6.55
2023-03-06T08:01:36.596Z,5.98
2023-03-06T08:04:05.870Z,6.29
2023-03-06T08:06:33.738Z,6.59
2023-03-06T08:09:00.889Z,6.78
2023-03-06T08:11:29.061Z,6.92
2023-03-06T08:13:56.662Z,7.01
2023-03-06T08:16:25.921Z,7.05
2023-03-06T08:18:53.954Z,7.17
2023-03-06T08:21:23.995Z,7.16
2023-03-06T08:23:51.280Z,7.11
2023-03-06T08:26:24.116Z,6.49
2023-03-06T08:28:55.296Z,6.51
2023-03-06T08:31:25.468Z,6.86
2023-03-06T08:33:53.678Z,6.88
2023-03-06T08:36:20.866Z,6.75
2023-03-06T08:38:48.407Z,6.86
2023-03-06T08:41:15.461Z,7.04
2023-03-06T08:43:42.728Z,7.21
2023-03-06T08:46:12.847Z,7.29
2023-03-06T08:48:40.304Z,7.40
2023-03-06T08:51:09.709Z,7.01
2023-03-06T08:53:42.981Z,7.16
2023-03-06T08:56:22.024Z,6.82
2023-03-06T08:58:49.080Z,5.55
2023-03-06T09:01:29.399Z,5.66
2023-03-06T09:03:57.959Z,5.65
2023-03-06T09:06:25.271Z,5.76
2023-03-06T09:08:52.877Z,5.51
2023-03-06T09:11:20.108Z,5.13
2023-03-06T09:13:47.615Z,5.29
2023-03-06T09:16:14.682Z,5.96
2023-03-06T09:18:41.874Z,6.58
2023-03-06T09:21:09.308Z,6.82
2023-03-06T09:23:37.220Z,6.72
2023-03-06T09:26:05.229Z,5.96
2023-03-06T09:28:35.781Z,6.13
2023-03-06T09:31:07.047Z,6.30
2023-03-06T09:33:34.145Z,6.34
2023-03-06T09:36:02.183Z,5.77
2023-03-06T09:38:29.487Z,5.48
2023-03-06T09:41:26.771Z,5.52
2023-03-06T09:43:56.640Z,5.92
2023-03-06T09:46:47.261Z,6.28
2023-03-06T09:49:51.902Z,5.10
2023-03-06T09:52:19.013Z,5.05
2023-03-06T09:54:47.832Z,4.95
2023-03-06T09:57:42.761Z,5.50
2023-03-06T10:00:26.754Z,5.76
2023-03-06T10:03:19.585Z,5.77
2023-03-06T10:05:59.892Z,5.04
2023-03-06T10:08:43.658Z,6.00
2023-03-06T10:11:11.172Z,5.33
2023-03-06T10:13:50.721Z,5.82
2023-03-06T10:16:27.121Z,5.90
2023-03-06T10:19:05.717Z,5.99
2023-03-06T10:21:59.146Z,4.68
2023-03-06T10:24:53.342Z,5.22
2023-03-06T10:27:47.074Z,3.75
2023-03-06T10:30:17.041Z,3.77
2023-03-06T10:32:55.337Z,5.05
2023-03-06T10:35:24.994Z,4.16
2023-03-06T10:37:52.416Z,4.41
2023-03-06T10:40:22.535Z,5.14
2023-03-06T10:42:53.965Z,5.26
2023-03-06T10:45:29.933Z,5.36
2023-03-06T10:48:11.128Z,4.94
2023-03-06T10:50:38.384Z,4.30
2023-03-06T10:53:07.401Z,5.11
2023-03-06T10:55:35.387Z,5.80
2023-03-06T10:58:22.116Z,5.71
2023-03-06T11:01:02.769Z,6.11
2023-03-06T11:03:30.369Z,6.33
2023-03-06T11:06:10.834Z,5.83
2023-03-06T11:08:39.818Z,5.78
2023-03-06T11:11:22.450Z,6.58
2023-03-06T11:13:58.917Z,4.98
2023-03-06T11:16:30.801Z,4.30
2023-03-06T11:19:00.002Z,4.25
2023-03-06T11:21:31.754Z,5.37
2023-03-06T11:24:19.031Z,5.01
2023-03-06T11:26:50.985Z,4.52
2023-03-06T11:29:35.705Z,5.56
2023-03-06T11:32:30.236Z,6.12
2023-03-06T11:35:10.187Z,4.91
2023-03-06T11:37:59.345Z,5.05
2023-03-06T11:40:32.287Z,4.80
2023-03-06T11:43:30.244Z,5.87
2023-03-06T11:46:12.473Z,6.82
2023-03-06T11:48:42.472Z,5.85
2023-03-06T11:51:23.618Z,5.68
2023-03-06T11:54:05.176Z,5.00
2023-03-06T11:56:58.056Z,5.14
2023-03-06T11:59:59.130Z,5.24
2023-03-06T12:03:03.923Z,5.63
2023-03-06T12:05:45.088Z,4.72
2023-03-06T12:08:45.273Z,5.39
2023-03-06T12:11:20.216Z,6.03
2023-03-06T12:14:11.574Z,6.70
2023-03-06T12:16:58.804Z,5.99
2023-03-06T12:19:44.717Z,5.87
2023-03-06T12:22:15.093Z,4.66
2023-03-06T12:25:04.127Z,4.50
2023-03-06T12:27:53.047Z,4.88
2023-03-06T12:30:48.400Z,4.78
2023-03-06T12:33:35.769Z,5.90
2023-03-06T12:36:05.797Z,6.60
2023-03-06T12:39:07.157Z,5.74
2023-03-06T12:41:34.481Z,5.34
2023-03-06T12:44:29.473Z,6.52
2023-03-06T12:47:09.441Z,7.59
2023-03-06T12:49:38.995Z,7.47
2023-03-06T12:52:11.018Z,6.41
2023-03-06T12:54:39.599Z,5.47
2023-03-06T12:57:08.592Z,6.43
2023-03-06T12:59:37.584Z,6.11
2023-03-06T13:02:10.627Z,6.31
2023-03-06T13:04:51.848Z,6.94
2023-03-06T13:07:30.918Z,6.37
2023-03-06T13:10:08.915Z,6.33
2023-03-06T13:12:41.744Z,7.01
2023-03-06T13:15:41.290Z,7.67
2023-03-06T13:18:23.281Z,6.46
2023-03-06T13:20:53.716Z,7.03
2023-03-06T13:23:30.413Z,6.95
2023-03-06T13:25:58.280Z,6.59
2023-03-06T13:28:50.113Z,7.17
2023-03-06T13:31:32.630Z,7.33
2023-03-06T13:34:03.644Z,6.78
2023-03-06T13:36:35.270Z,6.30
2023-03-06T13:39:06.263Z,5.56
2023-03-06T13:41:37.814Z,5.54
2023-03-06T13:44:25.403Z,5.36
2023-03-06T13:47:05.380Z,6.76
2023-03-06T13:49:32.520Z,7.23
2023-03-06T13:52:10.315Z,7.20
2023-03-06T13:55:29.080Z,7.58
2023-03-06T13:58:18.251Z,7.29
2023-03-06T14:01:02.252Z,6.59
2023-03-06T14:03:40.938Z,5.55
2023-03-06T14:06:36.154Z,4.97
2023-03-06T14:09:25.307Z,5.70
2023-03-06T14:11:55.335Z,6.01
2023-03-06T14:14:29.506Z,5.19
2023-03-06T14:16:57.478Z,4.93
2023-03-06T14:19:24.553Z,5.12
2023-03-06T14:21:55.990Z,5.60
2023-03-06T14:24:38.441Z,5.76
2023-03-06T14:27:05.647Z,5.70
2023-03-06T14:29:33.149Z,5.93
2023-03-06T14:32:01.160Z,6.30
2023-03-06T14:34:30.923Z,5.43
2023-03-06T14:37:02.698Z,5.42
2023-03-06T14:39:43.780Z,4.60
2023-03-06T14:42:21.934Z,4.93
2023-03-06T14:44:49.619Z,4.90
2023-03-06T14:47:29.185Z,4.35
2023-03-06T14:50:35.303Z,4.26
2023-03-06T14:53:14.134Z,5.03
2023-03-06T14:56:06.294Z,5.08
2023-03-06T14:58:36.728Z,4.98
2023-03-06T15:01:06.116Z,4.93
2023-03-06T15:03:42.739Z,5.68
2023-03-06T15:06:31.429Z,5.36
2023-03-06T15:09:02.127Z,5.26
2023-03-06T15:11:56.120Z,5.53
2023-03-06T15:14:33.534Z,4.62
2023-03-06T15:17:18.821Z,5.28
2023-03-06T15:19:47.110Z,5.56
2023-03-06T15:22:37.997Z,6.21
2023-03-06T15:25:21.614Z,6.61
2023-03-06T15:27:52.288Z,5.70
2023-03-06T15:30:23.669Z,6.06
2023-03-06T15:32:50.969Z,6.30
2023-03-06T15:35:32.001Z,6.29
2023-03-06T15:37:59.526Z,6.08
2023-03-06T15:40:28.855Z,6.38
2023-03-06T15:42:56.310Z,4.94
2023-03-06T15:45:24.457Z,4.71
2023-03-06T15:47:52.359Z,5.73
2023-03-06T15:50:25.037Z,6.18
2023-03-06T15:52:52.372Z,6.75
2023-03-06T15:55:21.146Z,7.19
2023-03-06T15:57:54.239Z,7.37
2023-03-06T16:00:34.343Z,7.69
2023-03-06T16:03:01.682Z,7.54
2023-03-06T16:05:29.588Z,7.80
2023-03-06T16:07:57.021Z,7.56
2023-03-06T16:10:25.620Z,7.63
2023-03-06T16:13:02.679Z,7.64
2023-03-06T16:15:29.963Z,7.65
2023-03-06T16:17:57.291Z,7.76
2023-03-06T16:20:26.145Z,7.82
2023-03-06T16:22:54.857Z,7.84
2023-03-06T16:25:23.166Z,7.91
2023-03-06T16:27:55.592Z,7.58
2023-03-06T16:30:22.918Z,7.64
2023-03-06T16:32:50.244Z,7.74
2023-03-06T16:35:18.679Z,7.96
2023-03-06T16:37:46.050Z,8.03
2023-03-06T16:40:33.997Z,7.98
2023-03-06T16:43:01.388Z,7.84
2023-03-06T16:45:28.670Z,7.99
2023-03-06T16:47:56.081Z,7.82
2023-03-06T16:50:30.286Z,7.82
2023-03-06T16:52:57.915Z,7.89
2023-03-06T16:55:26.308Z,7.92
2023-03-06T16:57:53.720Z,7.63
2023-03-06T17:00:21.177Z,7.80
2023-03-06T17:02:48.686Z,7.63
2023-03-06T17:05:16.761Z,7.69
2023-03-06T17:07:44.020Z,7.50
2023-03-06T17:10:13.236Z,7.64
2023-03-06T17:12:40.248Z,7.67
2023-03-06T17:15:07.795Z,7.84
2023-03-06T17:17:35.106Z,7.83
2023-03-06T17:20:02.903Z,7.99
2023-03-06T17:22:32.703Z,7.89
2023-03-06T17:25:04.918Z,7.94
2023-03-06T17:27:32.019Z,8.02
2023-03-06T17:29:59.408Z,8.13
2023-03-06T17:32:27.550Z,8.02
2023-03-06T17:34:56.669Z,7.83
2023-03-06T17:37:24.159Z,7.91
2023-03-06T17:39:51.247Z,7.97
2023-03-06T17:42:18.338Z,7.84
2023-03-06T17:44:46.580Z,7.92
2023-03-06T17:47:13.841Z,7.82
2023-03-06T17:49:40.896Z,7.74
2023-03-06T17:52:08.239Z,7.75
2023-03-06T17:54:36.180Z,7.74
2023-03-06T17:57:06.072Z,7.85
2023-03-06T17:59:35.826Z,7.79
2023-03-06T18:02:03.130Z,7.80
2023-03-06T18:04:30.349Z,7.78
2023-03-06T18:06:58.451Z,7.91
2023-03-06T18:09:25.891Z,7.89
2023-03-06T18:11:53.006Z,7.74
2023-03-06T18:14:20.066Z,7.77
2023-03-06T18:16:47.499Z,7.81
2023-03-06T18:19:15.177Z,7.76
2023-03-06T18:21:42.388Z,7.74
2023-03-06T18:24:11.032Z,7.74
2023-03-06T18:26:38.177Z,7.68
2023-03-06T18:29:05.523Z,7.67
2023-03-06T18:31:34.990Z,7.63
2023-03-06T18:34:03.932Z,7.59
2023-03-06T18:36:32.059Z,7.64
2023-03-06T18:39:03.655Z,7.79
2023-03-06T18:41:30.977Z,7.90
2023-03-06T18:43:59.217Z,7.77
2023-03-06T18:46:26.525Z,7.86
2023-03-06T18:48:55.263Z,7.84
2023-03-06T18:51:22.416Z,7.77
2023-03-06T18:53:50.033Z,7.81
2023-03-06T18:56:19.426Z,7.85
2023-03-06T18:58:46.822Z,7.80
2023-03-06T19:01:14.237Z,7.78
2023-03-06T19:03:42.712Z,7.85
2023-03-06T19:06:11.395Z,7.91
2023-03-06T19:08:39.019Z,7.94
2023-03-06T19:11:08.069Z,7.67
2023-03-06T19:13:35.661Z,7.75
2023-03-06T19:16:03.387Z,7.71
2023-03-06T19:18:30.547Z,7.66
2023-03-06T19:21:12.053Z,7.85
2023-03-06T19:23:39.751Z,7.76
2023-03-06T19:26:07.722Z,7.84
2023-03-06T19:28:35.648Z,7.75
2023-03-06T19:31:19.500Z,7.74
2023-03-06T19:33:48.609Z,7.54
2023-03-06T19:36:16.804Z,7.45
2023-03-06T19:38:44.498Z,7.52
2023-03-06T19:41:13.841Z,7.51
2023-03-06T19:43:41.771Z,7.57
2023-03-06T19:46:15.163Z,7.65
2023-03-06T19:48:42.297Z,7.70
2023-03-06T19:51:09.504Z,7.64
2023-03-06T19:53:36.810Z,7.66
2023-03-06T19:56:09.026Z,7.74
2023-03-06T19:58:36.444Z,7.83
2023-03-06T20:01:05.410Z,7.72
2023-03-06T20:03:32.590Z,7.70
2023-03-06T20:05:59.844Z,7.71
2023-03-06T20:08:26.930Z,7.77
2023-03-06T20:10:54.345Z,7.69
2023-03-06T20:13:21.376Z,7.36
2023-03-06T20:15:48.459Z,7.81
2023-03-06T20:18:15.625Z,7.09
2023-03-06T20:20:42.621Z,7.31
2023-03-06T20:23:09.711Z,7.12
2023-03-06T20:25:37.209Z,7.27
2023-03-06T20:28:05.092Z,7.39
2023-03-06T20:30:38.128Z,7.61
2023-03-06T20:33:05.936Z,7.58
2023-03-06T20:35:33.395Z,7.48
2023-03-06T20:38:00.902Z,7.44
2023-03-06T20:40:28.091Z,7.53
2023-03-06T20:42:55.070Z,7.58
2023-03-06T20:45:22.240Z,7.57
2023-03-06T20:47:49.617Z,7.65
2023-03-06T20:50:17.153Z,7.65
2023-03-06T20:52:44.727Z,7.74
2023-03-06T20:55:12.646Z,7.74
2023-03-06T20:57:39.788Z,7.68
2023-03-06T21:00:07.647Z,7.48
2023-03-06T21:02:34.572Z,7.57
2023-03-06T21:05:01.867Z,7.41
2023-03-06T21:07:29.602Z,7.52
2023-03-06T21:09:56.731Z,7.62
2023-03-06T21:12:23.780Z,7.62
2023-03-06T21:14:51.000Z,7.65
2023-03-06T21:17:18.110Z,7.55
2023-03-06T21:19:46.558Z,7.60
2023-03-06T21:22:14.359Z,7.75
2023-03-06T21:24:41.781Z,7.81
2023-03-06T21:27:09.229Z,7.90
2023-03-06T21:29:37.683Z,7.84
2023-03-06T21:32:05.309Z,7.86
2023-03-06T21:34:32.816Z,7.55
2023-03-06T21:36:59.817Z,7.52
2023-03-06T21:39:27.801Z,7.45
2023-03-06T21:41:55.175Z,7.57
2023-03-06T21:44:23.030Z,7.74
2023-03-06T21:46:50.610Z,7.74
2023-03-06T21:49:18.398Z,7.72
2023-03-06T21:51:45.675Z,7.77
2023-03-06T21:54:13.252Z,7.70
2023-03-06T21:56:40.311Z,7.53
2023-03-06T21:59:07.279Z,7.63
2023-03-06T22:01:34.428Z,7.67
2023-03-06T22:04:02.077Z,7.64
2023-03-06T22:06:31.009Z,7.41
2023-03-06T22:09:00.280Z,7.53
2023-03-06T22:11:31.727Z,7.54
2023-03-06T22:14:00.316Z,7.58
2023-03-06T22:16:27.347Z,7.52
2023-03-06T22:18:54.437Z,7.54
2023-03-06T22:21:24.681Z,7.63
2023-03-06T22:23:53.714Z,7.58
2023-03-06T22:26:20.997Z,7.40
2023-03-06T22:28:49.607Z,7.41
2023-03-06T22:31:25.709Z,7.20
2023-03-06T22:33:54.155Z,7.11
2023-03-06T22:36:21.519Z,7.22
2023-03-06T22:38:48.766Z,7.38
2023-03-06T22:41:17.869Z,7.43
2023-03-06T22:43:45.220Z,7.55
2023-03-06T22:46:13.967Z,7.37
2023-03-06T22:48:44.362Z,7.23
2023-03-06T22:51:16.325Z,7.35
2023-03-06T22:53:43.772Z,7.42
2023-03-06T22:56:14.515Z,7.35
2023-03-06T22:58:41.840Z,7.26
2023-03-06T23:01:23.439Z,7.11
2023-03-06T23:03:51.559Z,7.20
2023-03-06T23:06:19.522Z,7.18
2023-03-06T23:08:54.314Z,7.12
2023-03-06T23:11:22.782Z,7.28
2023-03-06T23:14:12.184Z,7.38
2023-03-06T23:16:57.825Z,7.33
2023-03-06T23:19:43.789Z,6.94
2023-03-06T23:22:31.040Z,7.00
2023-03-06T23:25:17.495Z,6.88
2023-03-06T23:27:45.040Z,6.78
2023-03-06T23:30:12.630Z,6.72
2023-03-06T23:32:40.940Z,6.70
2023-03-06T23:35:08.752Z,6.94
2023-03-06T23:37:36.676Z,7.21
2023-03-06T23:40:06.227Z,7.15
2023-03-06T23:42:35.629Z,7.17
2023-03-06T23:45:04.332Z,6.96
2023-03-06T23:47:33.928Z,7.15
2023-03-06T23:50:00.979Z,7.17
2023-03-06T23:52:28.247Z,7.26
2023-03-06T23:54:56.876Z,7.24
2023-03-06T23:57:24.256Z,7.24
2023-03-06T23:59:51.746Z,7.17
